createdAt,value
2023-04-10T00:00:02.074Z,90.85
2023-04-10T00:02:31.541Z,90.59
2023-04-10T00:05:02.155Z,90.61
2023-04-10T00:07:29.037Z,90.14
2023-04-10T00:09:55.698Z,90.13
2023-04-10T00:12:22.307Z,90.49
2023-04-10T00:14:48.873Z,90.41
2023-04-10T00:17:15.414Z,90.27
2023-04-10T00:19:41.959Z,90.43
2023-04-10T00:22:08.524Z,90.58
2023-04-10T00:24:35.338Z,90.48
2023-04-10T00:27:02.098Z,90.29
2023-04-10T00:29:28.947Z,90.72
2023-04-10T00:31:55.790Z,90.44
2023-04-10T00:34:22.400Z,90.53
2023-04-10T00:36:48.977Z,90.25
2023-04-10T00:39:15.543Z,91.18
2023-04-10T00:41:42.977Z,90.87
2023-04-10T00:44:09.561Z,91.15
2023-04-10T00:46:38.284Z,91.11
2023-04-10T00:49:06.216Z,91.11
2023-04-10T00:51:33.314Z,90.76
2023-04-10T00:54:01.326Z,90.96
2023-04-10T00:56:28.649Z,91.40
2023-04-10T00:58:55.221Z,91.32
2023-04-10T01:01:21.836Z,90.72
2023-04-10T01:03:48.787Z,90.66
2023-04-10T01:06:21.266Z,91.32
2023-04-10T01:08:50.874Z,90.94
2023-04-10T01:11:24.469Z,90.93
2023-04-10T01:14:27.843Z,91.30
2023-04-10T01:17:01.602Z,91.56
2023-04-10T01:20:03.068Z,91.69
2023-04-10T01:22:41.735Z,91.00
2023-04-10T01:25:28.156Z,91.39
2023-04-10T01:28:19.172Z,91.35
2023-04-10T01:30:52.306Z,91.53
2023-04-10T01:33:21.273Z,90.65
2023-04-10T01:35:52.257Z,91.39
2023-04-10T01:38:21.361Z,92.21
2023-04-10T01:40:52.319Z,91.85
2023-04-10T01:43:27.435Z,91.37
2023-04-10T01:45:55.822Z,91.92
2023-04-10T01:48:22.423Z,91.82
2023-04-10T01:50:50.339Z,91.64
2023-04-10T01:53:17.796Z,92.75
2023-04-10T01:55:44.845Z,93.00
2023-04-10T01:58:13.031Z,93.76
2023-04-10T02:00:42.792Z,93.45
2023-04-10T02:03:11.263Z,92.46
2023-04-10T02:06:02.897Z,92.07
2023-04-10T02:08:40.707Z,92.27
2023-04-10T02:11:17.755Z,92.94
2023-04-10T02:13:45.259Z,93.02
2023-04-10T02:16:17.251Z,92.67
2023-04-10T02:18:46.211Z,92.06
2023-04-10T02:21:13.217Z,91.83
2023-04-10T02:23:41.513Z,93.00
2023-04-10T02:26:11.039Z,92.10
2023-04-10T02:28:39.668Z,92.39
2023-04-10T02:31:07.213Z,93.04
2023-04-10T02:33:33.864Z,93.21
2023-04-10T02:36:01.395Z,92.87
2023-04-10T02:38:28.656Z,92.70
2023-04-10T02:40:55.811Z,92.68
2023-04-10T02:43:22.384Z,92.44
2023-04-10T02:45:49.042Z,92.89
2023-04-10T02:48:22.446Z,93.75
2023-04-10T02:51:00.277Z,92.65
2023-04-10T02:53:28.815Z,93.29
2023-04-10T02:55:58.702Z,93.35
2023-04-10T02:58:25.349Z,93.08
2023-04-10T03:00:54.852Z,93.94
2023-04-10T03:03:35.100Z,93.18
2023-04-10T03:06:01.826Z,92.77
2023-04-10T03:08:31.720Z,93.03
2023-04-10T03:10:58.341Z,92.99
2023-04-10T03:13:24.907Z,92.35
2023-04-10T03:15:51.506Z,92.11
2023-04-10T03:18:18.785Z,92.26
2023-04-10T03:20:48.933Z,92.79
2023-04-10T03:23:15.747Z,92.87
2023-04-10T03:25:43.376Z,94.05
2023-04-10T03:28:10.856Z,94.02
2023-04-10T03:30:37.614Z,94.10
2023-04-10T03:33:04.197Z,93.65
2023-04-10T03:35:31.337Z,92.94
2023-04-10T03:37:57.979Z,93.06
2023-04-10T03:40:24.534Z,93.23
2023-04-10T03:42:51.394Z,92.83
2023-04-10T03:45:18.346Z,93.03
2023-04-10T03:47:45.398Z,93.24
2023-04-10T03:50:14.999Z,93.38
2023-04-10T03:52:49.767Z,92.62
2023-04-10T03:55:20.997Z,93.62
2023-04-10T03:57:49.990Z,93.31
2023-04-10T04:00:20.000Z,92.82
2023-04-10T04:02:47.453Z,93.30
2023-04-10T04:05:21.405Z,93.66
2023-04-10T04:08:08.044Z,93.12
2023-04-10T04:10:57.248Z,92.60
2023-04-10T04:13:33.828Z,93.35
2023-04-10T04:16:16.907Z,92.82
2023-04-10T04:18:52.120Z,92.66
2023-04-10T04:21:28.498Z,92.46
2023-04-10T04:24:04.178Z,92.24
2023-04-10T04:26:49.771Z,91.61
2023-04-10T04:29:35.065Z,92.65
2023-04-10T04:32:10.573Z,92.20
2023-04-10T04:34:55.762Z,92.16
2023-04-10T04:37:42.390Z,92.35
2023-04-10T04:40:35.314Z,91.42
2023-04-10T04:43:12.569Z,91.12
2023-04-10T04:45:57.928Z,92.58
2023-04-10T04:48:47.645Z,92.23
2023-04-10T04:51:46.159Z,91.67
2023-04-10T04:54:31.050Z,91.00
2023-04-10T04:57:24.055Z,91.49
2023-04-10T05:00:22.827Z,91.46
2023-04-10T05:03:01.200Z,90.97
2023-04-10T05:05:57.118Z,91.15
2023-04-10T05:08:36.772Z,91.69
2023-04-10T05:11:29.509Z,90.92
2023-04-10T05:14:19.938Z,90.88
2023-04-10T05:17:03.375Z,90.90
2023-04-10T05:19:55.427Z,90.60
2023-04-10T05:22:42.244Z,89.94
2023-04-10T05:25:43.908Z,89.38
2023-04-10T05:28:20.641Z,89.10
2023-04-10T05:31:14.689Z,89.36
2023-04-10T05:34:04.474Z,88.62
2023-04-10T05:37:02.484Z,88.92
2023-04-10T05:39:47.633Z,88.44
2023-04-10T05:42:43.308Z,88.00
2023-04-10T05:45:30.201Z,87.19
2023-04-10T05:48:17.172Z,86.61
2023-04-10T05:51:06.690Z,85.75
2023-04-10T05:53:56.440Z,84.62
2023-04-10T05:56:45.287Z,84.04
2023-04-10T05:59:41.035Z,84.56
2023-04-10T06:02:22.934Z,84.10
2023-04-10T06:04:50.067Z,82.46
2023-04-10T06:07:17.011Z,83.20
2023-04-10T06:09:43.685Z,82.35
2023-04-10T06:12:11.079Z,82.27
2023-04-10T06:14:39.934Z,81.45
2023-04-10T06:17:07.144Z,81.07
2023-04-10T06:19:33.698Z,80.67
2023-04-10T06:22:00.531Z,79.63
2023-04-10T06:24:28.731Z,80.16
2023-04-10T06:26:57.003Z,80.11
2023-04-10T06:29:24.248Z,79.64
2023-04-10T06:31:51.127Z,79.51
2023-04-10T06:34:17.950Z,78.90
2023-04-10T06:36:55.628Z,78.66
2023-04-10T06:39:22.336Z,78.11
2023-04-10T06:41:48.889Z,78.65
2023-04-10T06:44:28.592Z,77.58
2023-04-10T06:46:55.431Z,77.01
2023-04-10T06:49:22.037Z,76.34
2023-04-10T06:51:48.736Z,75.38
2023-04-10T06:54:15.554Z,75.83
2023-04-10T06:56:42.125Z,74.43
2023-04-10T06:59:08.741Z,74.41
2023-04-10T07:01:35.744Z,74.02
2023-04-10T07:04:02.249Z,74.35
2023-04-10T07:06:29.018Z,73.73
2023-04-10T07:08:56.126Z,72.97
2023-04-10T07:11:22.757Z,72.63
2023-04-10T07:13:53.756Z,72.56
2023-04-10T07:16:20.778Z,70.13
2023-04-10T07:18:47.690Z,69.31
2023-04-10T07:21:14.361Z,69.69
2023-04-10T07:23:40.976Z,69.28
2023-04-10T07:26:07.546Z,69.75
2023-04-10T07:28:34.100Z,67.76
2023-04-10T07:31:00.804Z,65.76
2023-04-10T07:33:27.527Z,65.62
2023-04-10T07:35:54.144Z,63.92
2023-04-10T07:38:21.219Z,63.92
2023-04-10T07:40:48.236Z,63.80
2023-04-10T07:43:15.456Z,63.27
2023-04-10T07:45:42.057Z,62.61
2023-04-10T07:48:08.703Z,61.48
2023-04-10T07:50:36.164Z,61.56
2023-04-10T07:53:07.558Z,61.67
2023-04-10T07:55:38.950Z,59.56
2023-04-10T07:58:06.174Z,60.30
2023-04-10T08:00:33.843Z,58.82
2023-04-10T08:03:01.544Z,58.06
2023-04-10T08:05:28.573Z,57.73
2023-04-10T08:07:55.131Z,57.82
2023-04-10T08:10:21.642Z,57.37
2023-04-10T08:12:48.309Z,56.15
2023-04-10T08:15:14.855Z,57.99
2023-04-10T08:17:41.468Z,57.57
2023-04-10T08:20:12.142Z,56.44
2023-04-10T08:22:38.719Z,56.19
2023-04-10T08:25:05.910Z,54.28
2023-04-10T08:27:35.396Z,55.14
2023-04-10T08:30:02.385Z,54.39
2023-04-10T08:32:29.179Z,54.57
2023-04-10T08:34:55.835Z,53.88
2023-04-10T08:37:22.710Z,54.78
2023-04-10T08:39:49.299Z,54.46
2023-04-10T08:42:16.282Z,54.70
2023-04-10T08:44:46.053Z,53.94
2023-04-10T08:47:14.567Z,53.36
2023-04-10T08:49:57.037Z,53.26
2023-04-10T08:52:29.522Z,53.11
2023-04-10T08:54:58.495Z,52.95
2023-04-10T08:57:26.849Z,51.94
2023-04-10T08:59:53.502Z,52.36
2023-04-10T09:02:22.781Z,50.29
2023-04-10T09:04:53.635Z,49.70
2023-04-10T09:07:20.416Z,48.52
2023-04-10T09:09:47.207Z,48.79
2023-04-10T09:12:15.550Z,48.20
2023-04-10T09:14:42.921Z,47.75
2023-04-10T09:17:19.132Z,47.83
2023-04-10T09:19:49.840Z,47.43
2023-04-10T09:22:17.159Z,47.04
2023-04-10T09:24:45.652Z,46.88
2023-04-10T09:27:31.223Z,46.73
2023-04-10T09:30:00.203Z,47.15
2023-04-10T09:32:45.116Z,46.06
2023-04-10T09:35:14.180Z,45.38
2023-04-10T09:37:43.707Z,45.90
2023-04-10T09:40:25.152Z,45.88
2023-04-10T09:42:52.804Z,46.99
2023-04-10T09:45:20.579Z,45.44
2023-04-10T09:48:08.391Z,44.86
2023-04-10T09:50:40.823Z,44.89
2023-04-10T09:53:15.574Z,44.20
2023-04-10T09:55:43.649Z,44.04
2023-04-10T09:58:11.108Z,45.09
2023-04-10T10:00:42.858Z,43.97
2023-04-10T10:03:14.922Z,43.47
2023-04-10T10:05:43.908Z,43.24
2023-04-10T10:08:12.002Z,43.15
2023-04-10T10:10:51.405Z,42.58
2023-04-10T10:13:27.896Z,42.90
2023-04-10T10:15:58.300Z,42.66
2023-04-10T10:18:39.282Z,41.96
2023-04-10T10:21:09.222Z,42.07
2023-04-10T10:23:37.649Z,41.83
2023-04-10T10:26:08.955Z,42.38
2023-04-10T10:28:37.090Z,41.32
2023-04-10T10:31:04.264Z,42.17
2023-04-10T10:33:32.133Z,41.48
2023-04-10T10:36:00.647Z,41.18
2023-04-10T10:38:28.211Z,41.03
2023-04-10T10:41:02.270Z,41.52
2023-04-10T10:43:56.116Z,41.05
2023-04-10T10:46:35.757Z,39.59
2023-04-10T10:49:02.436Z,40.13
2023-04-10T10:51:49.027Z,42.07
2023-04-10T10:54:28.250Z,42.25
2023-04-10T10:56:55.129Z,41.03
2023-04-10T10:59:54.299Z,40.94
2023-04-10T11:02:20.912Z,41.15
2023-04-10T11:04:51.399Z,41.36
2023-04-10T11:07:19.114Z,41.36
2023-04-10T11:09:57.080Z,41.27
2023-04-10T11:12:24.990Z,40.43
2023-04-10T11:15:06.631Z,40.55
2023-04-10T11:17:54.344Z,42.40
2023-04-10T11:20:28.710Z,41.20
2023-04-10T11:23:12.593Z,41.48
2023-04-10T11:25:57.432Z,40.50
2023-04-10T11:28:33.225Z,39.67
2023-04-10T11:31:16.355Z,40.17
2023-04-10T11:33:42.911Z,40.05
2023-04-10T11:36:09.893Z,40.05
2023-04-10T11:38:37.276Z,41.17
2023-04-10T11:41:06.622Z,40.06
2023-04-10T11:43:34.963Z,39.21
2023-04-10T11:46:04.565Z,38.16
2023-04-10T11:48:32.213Z,38.23
2023-04-10T11:51:01.621Z,39.94
2023-04-10T11:53:29.947Z,39.04
2023-04-10T11:55:56.878Z,38.59
2023-04-10T11:58:30.438Z,39.06
2023-04-10T12:01:05.006Z,39.25
2023-04-10T12:03:37.340Z,38.31
2023-04-10T12:06:10.074Z,38.27
2023-04-10T12:08:39.525Z,38.46
2023-04-10T12:11:06.427Z,38.01
2023-04-10T12:13:33.503Z,37.82
2023-04-10T12:16:02.504Z,37.70
2023-04-10T12:18:30.699Z,37.12
2023-04-10T12:20:59.448Z,37.00
2023-04-10T12:23:28.611Z,36.64
2023-04-10T12:26:08.511Z,37.56
2023-04-10T12:28:36.551Z,36.48
2023-04-10T12:31:03.648Z,36.56
2023-04-10T12:33:30.389Z,38.31
2023-04-10T12:35:56.992Z,36.79
2023-04-10T12:38:41.391Z,35.79
2023-04-10T12:41:11.801Z,36.60
2023-04-10T12:43:42.840Z,35.34
2023-04-10T12:46:10.876Z,35.88
2023-04-10T12:48:37.743Z,35.86
2023-04-10T12:51:04.974Z,36.79
2023-04-10T12:53:33.041Z,37.65
2023-04-10T12:56:08.752Z,35.56
2023-04-10T12:58:35.575Z,36.02
2023-04-10T13:01:07.204Z,36.02
2023-04-10T13:03:34.670Z,36.28
2023-04-10T13:06:01.838Z,35.39
2023-04-10T13:08:28.517Z,35.32
2023-04-10T13:10:55.233Z,36.03
2023-04-10T13:13:21.784Z,35.51
2023-04-10T13:15:49.464Z,36.18
2023-04-10T13:18:16.204Z,34.62
2023-04-10T13:20:42.808Z,34.68
2023-04-10T13:23:09.449Z,35.22
2023-04-10T13:25:40.826Z,35.47
2023-04-10T13:28:11.027Z,35.41
2023-04-10T13:30:40.315Z,34.98
2023-04-10T13:33:07.983Z,34.60
2023-04-10T13:35:34.657Z,34.82
2023-04-10T13:38:02.089Z,34.72
2023-04-10T13:40:31.567Z,34.61
2023-04-10T13:42:59.912Z,34.68
2023-04-10T13:45:34.818Z,35.36
2023-04-10T13:48:10.398Z,35.96
2023-04-10T13:50:45.045Z,34.98
2023-04-10T13:53:11.839Z,34.92
2023-04-10T13:55:40.359Z,34.69
2023-04-10T13:58:07.065Z,34.46
2023-04-10T14:00:38.647Z,34.79
2023-04-10T14:03:14.758Z,34.46
2023-04-10T14:05:41.422Z,33.56
2023-04-10T14:08:11.826Z,33.29
2023-04-10T14:10:39.594Z,33.15
2023-04-10T14:13:06.986Z,32.41
2023-04-10T14:15:37.214Z,32.16
2023-04-10T14:18:05.653Z,31.25
2023-04-10T14:20:32.211Z,31.44
2023-04-10T14:22:58.901Z,31.05
2023-04-10T14:25:25.575Z,30.92
2023-04-10T14:27:52.165Z,30.82
2023-04-10T14:30:18.796Z,31.01
2023-04-10T14:32:45.577Z,30.37
2023-04-10T14:35:14.698Z,30.95
2023-04-10T14:37:41.245Z,31.18
2023-04-10T14:40:09.803Z,31.75
2023-04-10T14:42:36.506Z,32.00
2023-04-10T14:45:03.242Z,32.76
2023-04-10T14:47:29.868Z,33.18
2023-04-10T14:49:56.513Z,34.20
2023-04-10T14:52:23.394Z,33.33
2023-04-10T14:54:50.180Z,33.77
2023-04-10T14:57:17.272Z,33.99
2023-04-10T14:59:44.082Z,34.03
2023-04-10T15:02:10.787Z,35.00
2023-04-10T15:04:37.746Z,34.60
2023-04-10T15:07:04.732Z,34.47
2023-04-10T15:09:32.521Z,34.92
2023-04-10T15:11:59.086Z,35.61
2023-04-10T15:14:26.029Z,35.19
2023-04-10T15:16:54.089Z,35.68
2023-04-10T15:19:20.868Z,35.56
2023-04-10T15:21:47.463Z,36.45
2023-04-10T15:24:14.039Z,36.23
2023-04-10T15:26:45.628Z,35.73
2023-04-10T15:29:13.261Z,36.14
2023-04-10T15:31:40.441Z,36.86
2023-04-10T15:34:07.374Z,37.01
2023-04-10T15:36:33.932Z,36.84
2023-04-10T15:39:02.744Z,36.78
2023-04-10T15:41:31.690Z,36.45
2023-04-10T15:43:58.730Z,36.61
2023-04-10T15:46:26.072Z,36.39
2023-04-10T15:48:52.749Z,36.77
2023-04-10T15:51:19.331Z,36.58
2023-04-10T15:53:45.968Z,36.76
2023-04-10T15:56:12.568Z,36.88
2023-04-10T15:58:39.123Z,36.59
2023-04-10T16:01:06.273Z,36.57
2023-04-10T16:03:33.051Z,36.35
2023-04-10T16:05:59.708Z,36.91
2023-04-10T16:08:27.361Z,36.50
2023-04-10T16:10:54.165Z,37.43
2023-04-10T16:13:20.861Z,37.36
2023-04-10T16:15:47.572Z,36.78
2023-04-10T16:18:14.148Z,37.29
2023-04-10T16:20:43.955Z,37.05
2023-04-10T16:23:10.664Z,37.57
2023-04-10T16:25:37.308Z,37.22
2023-04-10T16:28:06.481Z,37.09
2023-04-10T16:30:33.860Z,37.31
2023-04-10T16:33:01.864Z,37.56
2023-04-10T16:35:28.563Z,38.09
2023-04-10T16:37:55.095Z,38.13
2023-04-10T16:40:22.246Z,38.14
2023-04-10T16:42:48.804Z,38.41
2023-04-10T16:45:15.924Z,38.73
2023-04-10T16:47:44.586Z,39.18
2023-04-10T16:50:11.538Z,38.95
2023-04-10T16:52:38.272Z,38.44
2023-04-10T16:55:05.308Z,39.12
2023-04-10T16:57:33.062Z,39.11
2023-04-10T16:59:59.771Z,39.21
2023-04-10T17:02:26.830Z,38.85
2023-04-10T17:04:56.937Z,38.95
2023-04-10T17:07:23.932Z,38.52
2023-04-10T17:09:51.592Z,38.41
2023-04-10T17:12:18.415Z,38.11
2023-04-10T17:14:45.440Z,38.68
2023-04-10T17:17:12.013Z,38.13
2023-04-10T17:19:38.659Z,37.99
2023-04-10T17:22:06.833Z,38.06
2023-04-10T17:24:33.891Z,38.84
2023-04-10T17:27:04.979Z,37.80
2023-04-10T17:29:36.092Z,37.62
2023-04-10T17:32:02.824Z,37.76
2023-04-10T17:34:33.499Z,37.78
2023-04-10T17:37:00.757Z,37.64
2023-04-10T17:39:27.681Z,37.87
2023-04-10T17:41:54.414Z,38.09
2023-04-10T17:44:21.028Z,38.28
2023-04-10T17:46:47.575Z,38.29
2023-04-10T17:49:14.437Z,38.23
2023-04-10T17:51:41.824Z,38.00
2023-04-10T17:54:08.578Z,38.13
2023-04-10T17:56:35.208Z,38.09
2023-04-10T17:59:02.815Z,38.15
2023-04-10T18:01:30.913Z,38.25
2023-04-10T18:03:59.177Z,38.50
2023-04-10T18:06:27.493Z,37.69
2023-04-10T18:08:55.861Z,37.83
2023-04-10T18:11:23.859Z,38.02
2023-04-10T18:13:50.470Z,37.55
2023-04-10T18:16:20.387Z,37.65
2023-04-10T18:18:47.017Z,37.82
2023-04-10T18:21:13.736Z,38.09
2023-04-10T18:23:40.720Z,38.08
2023-04-10T18:26:07.750Z,37.84
2023-04-10T18:28:36.826Z,38.14
2023-04-10T18:31:03.651Z,38.83
2023-04-10T18:33:30.612Z,38.45
2023-04-10T18:35:58.648Z,38.38
2023-04-10T18:38:26.568Z,39.11
2023-04-10T18:40:57.037Z,38.30
2023-04-10T18:43:27.575Z,38.44
2023-04-10T18:45:54.936Z,39.09
2023-04-10T18:48:22.208Z,39.29
2023-04-10T18:50:53.326Z,39.28
2023-04-10T18:53:21.049Z,41.73
2023-04-10T18:55:54.700Z,44.64
2023-04-10T18:58:22.082Z,50.03
2023-04-10T19:00:49.282Z,51.81
2023-04-10T19:03:16.398Z,53.66
2023-04-10T19:05:43.633Z,55.91
2023-04-10T19:08:14.941Z,57.45
2023-04-10T19:10:42.554Z,60.51
2023-04-10T19:13:12.854Z,66.42
2023-04-10T19:15:45.865Z,73.47
2023-04-10T19:18:14.070Z,73.80
2023-04-10T19:20:49.892Z,77.63
2023-04-10T19:23:20.424Z,80.62
2023-04-10T19:25:50.981Z,80.77
2023-04-10T19:28:17.533Z,83.99
2023-04-10T19:30:45.924Z,85.62
2023-04-10T19:33:14.295Z,89.70
2023-04-10T19:35:44.189Z,91.20
2023-04-10T19:38:11.046Z,91.77
2023-04-10T19:40:37.727Z,92.59
2023-04-10T19:43:04.297Z,93.67
2023-04-10T19:45:32.434Z,93.19
2023-04-10T19:47:59.415Z,93.19
2023-04-10T19:50:30.895Z,94.61
2023-04-10T19:52:58.054Z,94.96
2023-04-10T19:55:25.311Z,95.75
2023-04-10T19:57:51.910Z,96.58
2023-04-10T20:00:19.659Z,96.91
2023-04-10T20:02:46.709Z,97.77
2023-04-10T20:05:13.530Z,97.10
2023-04-10T20:07:40.213Z,100.00
2023-04-10T20:10:09.071Z,99.82
2023-04-10T20:12:35.829Z,99.62
2023-04-10T20:15:03.908Z,100.00
2023-04-10T20:17:30.902Z,100.00
2023-04-10T20:19:57.786Z,99.40
2023-04-10T20:22:25.343Z,99.63
2023-04-10T20:24:51.994Z,100.00
2023-04-10T20:27:18.708Z,99.49
2023-04-10T20:29:45.333Z,100.00
2023-04-10T20:32:11.887Z,100.00
2023-04-10T20:34:38.548Z,100.00
2023-04-10T20:37:08.016Z,100.00
2023-04-10T20:39:34.621Z,100.00
2023-04-10T20:42:01.830Z,100.00
2023-04-10T20:44:28.374Z,100.00
2023-04-10T20:46:55.156Z,100.00
2023-04-10T20:49:22.629Z,100.00
2023-04-10T20:51:49.246Z,100.00
2023-04-10T20:54:18.813Z,100.00
2023-04-10T20:56:45.300Z,100.00
2023-04-10T20:59:18.596Z,100.00
2023-04-10T21:01:45.287Z,100.00
2023-04-10T21:04:12.206Z,100.00
2023-04-10T21:06:38.852Z,100.00
2023-04-10T21:09:06.042Z,100.00
2023-04-10T21:11:32.663Z,100.00
2023-04-10T21:13:59.266Z,100.00
2023-04-10T21:16:25.992Z,100.00
2023-04-10T21:18:53.669Z,100.00
2023-04-10T21:21:20.624Z,100.00
2023-04-10T21:23:47.246Z,100.00
2023-04-10T21:26:13.913Z,100.00
2023-04-10T21:28:40.594Z,100.00
2023-04-10T21:31:07.214Z,100.00
2023-04-10T21:33:33.876Z,100.00
2023-04-10T21:36:00.959Z,100.00
2023-04-10T21:38:28.031Z,100.00
2023-04-10T21:40:55.063Z,100.00
2023-04-10T21:43:21.925Z,100.00
2023-04-10T21:45:48.691Z,100.00
2023-04-10T21:48:15.451Z,100.00
2023-04-10T21:50:42.313Z,100.00
2023-04-10T21:53:09.145Z,100.00
2023-04-10T21:55:35.733Z,100.00
2023-04-10T21:58:02.362Z,100.00
2023-04-10T22:00:29.022Z,100.00
2023-04-10T22:02:55.767Z,100.00
2023-04-10T22:05:24.305Z,100.00
2023-04-10T22:07:52.120Z,100.00
2023-04-10T22:10:18.921Z,100.00
2023-04-10T22:12:48.414Z,100.00
2023-04-10T22:15:18.481Z,100.00
2023-04-10T22:17:46.253Z,100.00
2023-04-10T22:20:12.899Z,100.00
2023-04-10T22:22:39.556Z,100.00
2023-04-10T22:25:08.385Z,100.00
2023-04-10T22:27:35.155Z,100.00
2023-04-10T22:30:03.696Z,100.00
2023-04-10T22:32:31.605Z,100.00
2023-04-10T22:34:59.612Z,100.00
2023-04-10T22:37:26.822Z,100.00
2023-04-10T22:39:54.643Z,100.00
2023-04-10T22:42:21.487Z,100.00
2023-04-10T22:44:48.015Z,100.00
2023-04-10T22:47:14.662Z,100.00
2023-04-10T22:49:41.252Z,100.00
2023-04-10T22:52:07.825Z,100.00
2023-04-10T22:54:34.440Z,100.00
2023-04-10T22:57:01.019Z,100.00
2023-04-10T22:59:27.667Z,100.00
2023-04-10T23:01:54.352Z,100.00
2023-04-10T23:04:21.405Z,100.00
2023-04-10T23:06:48.083Z,100.00
2023-04-10T23:09:14.607Z,100.00
2023-04-10T23:11:41.149Z,100.00
2023-04-10T23:14:07.822Z,100.00
2023-04-10T23:16:34.496Z,100.00
2023-04-10T23:19:01.091Z,100.00
2023-04-10T23:21:27.722Z,100.00
2023-04-10T23:23:54.246Z,100.00
2023-04-10T23:26:21.076Z,100.00
2023-04-10T23:28:48.163Z,100.00
2023-04-10T23:31:15.716Z,100.00
2023-04-10T23:33:42.258Z,100.00
2023-04-10T23:36:14.966Z,100.00
2023-04-10T23:38:41.815Z,100.00
2023-04-10T23:41:08.482Z,100.00
2023-04-10T23:43:35.111Z,100.00
2023-04-10T23:46:01.722Z,100.00
2023-04-10T23:48:28.303Z,100.00
2023-04-10T23:51:06.523Z,100.00
2023-04-10T23:53:33.219Z,100.00
2023-04-10T23:56:00.146Z,100.00
2023-04-10T23:58:26.907Z,100.00
